Time;durP1;ratioP1;P1;durP2;ratioP2;P2;SDS_P1;SDS_P2;PMS_P1;PMS_P2;Temp;Humidity;BMP_temperature;BMP_pressure;BME280_temperature;BME280_humidity;BME280_pressure;Samples;Min_cycle;Max_cycle;Signal;HPM_P1;HPM_P2
2022/01/08 00:00:07;;;;;;;7.72;1.50;;;;;;;2.29;100.00;100653.38;4947724;29;20504;-75
2022/01/08 00:02:33;;;;;;;25.10;7.78;;;;;;;2.09;100.00;100647.50;4922802;29;20082;-75
2022/01/08 00:05:00;;;;;;;9.55;1.92;;;;;;;1.90;100.00;100625.97;4921903;29;20470;-74
2022/01/08 00:07:26;;;;;;;12.65;1.95;;;;;;;2.03;100.00;100640.03;4937482;29;20035;-75
2022/01/08 00:09:53;;;;;;;10.73;2.30;;;;;;;2.14;100.00;100655.06;4921752;29;20043;-74
2022/01/08 00:12:18;;;;;;;11.10;1.98;;;;;;;1.84;100.00;100605.47;4941093;29;20027;-75
2022/01/08 00:14:44;;;;;;;10.43;1.95;;;;;;;2.13;100.00;100629.09;4958038;29;20027;-75
2022/01/08 00:17:09;;;;;;;11.88;1.92;;;;;;;2.20;100.00;100659.09;4925156;29;20085;-75
2022/01/08 00:19:35;;;;;;;13.43;2.40;;;;;;;2.32;100.00;100665.41;4941452;29;20118;-75
2022/01/08 00:22:00;;;;;;;11.57;2.30;;;;;;;2.05;100.00;100613.91;4941198;29;20023;-75
2022/01/08 00:24:26;;;;;;;7.60;2.03;;;;;;;2.01;100.00;100602.78;4925205;29;20185;-74
2022/01/08 00:26:52;;;;;;;8.85;1.80;;;;;;;2.46;100.00;100679.38;4941345;29;20030;-73
2022/01/08 00:29:17;;;;;;;11.70;2.65;;;;;;;2.40;100.00;100660.63;4925375;29;20035;-76
2022/01/08 00:31:43;;;;;;;8.38;1.77;;;;;;;2.50;100.00;100664.41;4940982;29;20450;-75
2022/01/08 00:34:08;;;;;;;13.23;2.20;;;;;;;2.40;100.00;100642.38;4925774;29;20190;-74
2022/01/08 00:36:34;;;;;;;13.95;1.90;;;;;;;2.22;100.00;100650.28;4941386;29;20102;-74
2022/01/08 00:39:00;;;;;;;12.05;2.22;;;;;;;2.62;100.00;100679.34;4941600;29;20118;-74
2022/01/08 00:41:25;;;;;;;11.23;2.30;;;;;;;2.63;100.00;100677.59;4941192;29;20546;-74
2022/01/08 00:43:52;;;;;;;14.40;2.53;;;;;;;2.31;100.00;100633.28;4958173;29;20537;-74
2022/01/08 00:46:18;;;;;;;13.55;2.40;;;;;;;2.82;100.00;100687.84;4924972;29;20051;-75
2022/01/08 00:48:44;;;;;;;10.02;2.30;;;;;;;2.70;100.00;100685.00;4924667;29;20065;-74
2022/01/08 00:51:10;;;;;;;17.00;2.72;;;;;;;2.67;100.00;100659.06;4924644;29;20035;-75
2022/01/08 00:53:36;;;;;;;14.23;2.92;;;;;;;2.72;100.00;100677.94;4940865;29;20023;-74
2022/01/08 00:56:02;;;;;;;21.23;3.72;;;;;;;2.58;100.00;100657.00;4961100;29;20031;-75
2022/01/08 00:58:28;;;;;;;14.55;3.30;;;;;;;2.20;100.00;100609.59;4932161;29;20035;-74
2022/01/08 01:00:54;;;;;;;16.75;2.90;;;;;;;2.34;100.00;100627.94;4941923;29;20031;-74
2022/01/08 01:03:19;;;;;;;14.77;3.10;;;;;;;2.13;100.00;100642.97;4957641;29;20057;-75
2022/01/08 01:05:45;;;;;;;13.05;2.80;;;;;;;1.76;100.00;100616.28;4940951;29;20015;-74
2022/01/08 01:08:11;;;;;;;13.02;2.63;;;;;;;1.94;100.00;100624.06;4957339;29;20138;-74
2022/01/08 01:10:36;;;;;;;12.30;2.42;;;;;;;1.97;100.00;100595.22;4940746;29;20087;-75
2022/01/08 01:13:02;;;;;;;13.55;2.38;;;;;;;2.35;100.00;100658.25;4924215;29;20565;-76
2022/01/08 01:15:28;;;;;;;9.60;1.92;;;;;;;1.97;100.00;100627.31;4940073;29;20381;-75
2022/01/08 01:17:54;;;;;;;16.83;2.58;;;;;;;1.66;100.00;100610.75;4957650;29;20557;-74
2022/01/08 01:20:21;;;;;;;14.43;2.33;;;;;;;1.84;100.00;100629.75;4957375;29;20059;-74
2022/01/08 01:25:20;;;;;;;13.73;2.30;;;;;;;2.03;100.00;100655.66;4940209;29;20035;-74
2022/01/08 01:41:36;;;;;;;12.33;2.60;;;;;;;2.32;100.00;100665.41;4939835;29;20027;-74
2022/01/08 01:49:16;;;;;;;12.52;2.10;;;;;;;2.00;100.00;100657.56;4957377;28;20031;-76
2022/01/08 01:51:45;;;;;;;7.97;1.58;;;;;;;1.94;100.00;100642.28;4959371;29;20038;-74
2022/01/08 01:54:11;;;;;;;10.18;2.10;;;;;;;1.88;100.00;100664.28;4936846;29;20031;-74
2022/01/08 01:56:37;;;;;;;8.52;1.80;;;;;;;2.08;100.00;100663.22;4936572;29;20027;-74
2022/01/08 01:59:03;;;;;;;9.30;1.92;;;;;;;1.91;100.00;100639.81;4929123;29;20058;-74
2022/01/08 02:01:29;;;;;;;12.07;1.80;;;;;;;1.80;100.00;100619.59;4940435;29;20062;-75
2022/01/08 02:03:55;;;;;;;8.57;1.33;;;;;;;1.63;100.00;100662.94;4958386;29;20049;-74
2022/01/08 02:06:20;;;;;;;8.55;2.15;;;;;;;1.86;100.00;100690.41;4958916;29;20055;-74
2022/01/08 02:08:46;;;;;;;12.35;1.38;;;;;;;1.80;100.00;100688.13;4923708;29;20134;-75
2022/01/08 02:11:12;;;;;;;5.15;1.30;;;;;;;1.69;100.00;100669.59;4956789;29;20089;-73
2022/01/08 02:13:40;;;;;;;7.70;1.27;;;;;;;1.49;100.00;100678.44;4939753;29;20433;-74
2022/01/08 02:16:18;;;;;;;9.75;1.40;;;;;;;1.24;100.00;100655.44;4939692;29;20098;-74
2022/01/08 02:18:50;;;;;;;9.45;1.70;;;;;;;1.39;100.00;100692.84;4923569;29;20038;-73
2022/01/08 02:21:16;;;;;;;4.85;1.08;;;;;;;1.25;100.00;100670.97;4923376;29;20620;-75
2022/01/08 02:23:42;;;;;;;8.80;1.20;;;;;;;1.21;100.00;100642.59;4923142;29;20058;-74
2022/01/08 02:26:10;;;;;;;6.93;1.40;;;;;;;1.43;100.00;100684.81;4923033;29;20023;-73
2022/01/08 02:28:37;;;;;;;6.85;1.35;;;;;;;1.54;100.00;100686.00;4955743;29;20039;-75
2022/01/08 02:31:03;;;;;;;10.18;1.67;;;;;;;1.55;100.00;100667.72;4938873;29;20488;-74
2022/01/08 02:33:30;;;;;;;10.07;1.63;;;;;;;1.63;100.00;100680.34;4938022;29;20474;-74
2022/01/08 02:35:56;;;;;;;9.32;1.50;;;;;;;1.80;100.00;100684.69;4938796;29;20027;-75
2022/01/08 02:38:23;;;;;;;10.55;1.67;;;;;;;1.79;100.00;100683.81;4938840;29;20469;-73
2022/01/08 02:40:59;;;;;;;8.98;1.70;;;;;;;1.75;100.00;100674.50;4955791;29;20026;-74
2022/01/08 02:43:44;;;;;;;11.60;2.25;;;;;;;1.72;100.00;100679.84;4936239;29;20041;-75
2022/01/08 02:46:11;;;;;;;11.52;1.60;;;;;;;1.74;100.00;100683.22;4922709;29;20031;-74
2022/01/08 02:48:37;;;;;;;10.82;1.58;;;;;;;1.77;100.00;100675.28;4906855;29;20125;-74
2022/01/08 02:51:03;;;;;;;7.40;1.52;;;;;;;1.93;100.00;100684.84;4922378;29;20106;-73
2022/01/08 02:53:29;;;;;;;9.05;1.58;;;;;;;1.67;100.00;100646.25;4922459;29;20027;-74
2022/01/08 02:55:54;;;;;;;8.30;1.50;;;;;;;1.79;100.00;100647.38;4938193;29;20027;-73
2022/01/08 02:58:21;;;;;;;8.70;1.35;;;;;;;1.61;100.00;100679.56;4938314;29;20569;-74
2022/01/08 03:00:47;;;;;;;8.35;1.90;;;;;;;1.91;100.00;100676.28;4921913;29;20042;-75
2022/01/08 03:03:13;;;;;;;9.90;1.73;;;;;;;1.54;100.00;100627.00;4922169;29;20027;-75
2022/01/08 03:05:38;;;;;;;8.35;1.40;;;;;;;1.74;100.00;100671.97;4955828;29;20079;-75
2022/01/08 03:08:04;;;;;;;8.68;1.63;;;;;;;1.71;100.00;100699.00;4920174;29;20600;-74
2022/01/08 03:10:30;;;;;;;7.22;1.35;;;;;;;1.57;100.00;100689.31;4918401;29;20039;-75
2022/01/08 03:12:55;;;;;;;7.32;1.20;;;;;;;1.49;100.00;100680.22;4936292;29;20032;-74
2022/01/08 03:15:22;;;;;;;4.70;1.20;;;;;;;1.32;100.00;100648.09;4935205;29;20053;-74
2022/01/08 03:17:48;;;;;;;7.30;1.63;;;;;;;1.53;100.00;100674.75;4934648;29;20390;-73
2022/01/08 03:20:15;;;;;;;6.90;1.30;;;;;;;1.49;100.00;100683.66;4936107;29;20039;-74
2022/01/08 03:22:44;;;;;;;6.13;1.30;;;;;;;1.53;100.00;100685.19;4918747;29;20047;-74
2022/01/08 03:25:12;;;;;;;6.18;1.33;;;;;;;0.44;100.00;100506.03;4937578;23;20418;-75
2022/01/08 03:27:41;;;;;;;6.78;1.35;;;;;;;1.25;100.00;100612.91;4929200;29;20377;-74
2022/01/08 03:30:19;;;;;;;12.63;2.00;;;;;;;1.40;100.00;100648.53;4965974;29;20180;-75
2022/01/08 03:32:45;;;;;;;6.95;1.33;;;;;;;1.66;100.00;100685.41;4942212;29;20092;-75
2022/01/08 03:35:11;;;;;;;7.32;1.42;;;;;;;1.91;100.00;100690.16;4957456;29;20018;-74
2022/01/08 03:37:40;;;;;;;7.82;1.77;;;;;;;1.72;100.00;100663.41;4943134;29;20027;-75
2022/01/08 03:40:06;;;;;;;8.50;1.75;;;;;;;2.09;100.00;100694.41;4939283;29;20066;-74
2022/01/08 03:42:32;;;;;;;10.07;1.60;;;;;;;2.07;100.00;100685.81;4938438;29;20031;-73
2022/01/08 03:44:57;;;;;;;8.38;1.75;;;;;;;1.86;100.00;100708.63;4986688;28;20054;-75
2022/01/08 03:49:53;;;;;;;11.32;1.95;;;;;;;1.10;100.00;100604.09;4992204;28;20032;-74
2022/01/08 03:52:20;;;;;;;8.00;1.50;;;;;;;1.63;100.00;100699.38;4993499;28;20031;-74
2022/01/08 03:54:46;;;;;;;6.25;1.40;;;;;;;0.72;100.00;100619.00;4960248;28;20019;-74
2022/01/08 03:57:11;;;;;;;6.88;1.15;;;;;;;1.37;100.00;100712.91;4975475;28;20057;-73
2022/01/08 03:59:37;;;;;;;6.50;1.10;;;;;;;0.73;100.00;100605.13;4972952;28;20054;-74
2022/01/08 04:02:04;;;;;;;8.02;1.80;;;;;;;1.31;100.00;100687.19;4984919;28;20050;-74
2022/01/08 04:04:29;;;;;;;7.10;1.13;;;;;;;1.31;100.00;100716.63;4982128;28;20372;-74
2022/01/08 04:06:55;;;;;;;6.40;1.45;;;;;;;0.96;100.00;100643.81;4964716;28;20097;-74
2022/01/08 04:09:20;;;;;;;5.15;1.05;;;;;;;1.17;100.00;100662.69;4964304;28;20034;-75
2022/01/08 04:11:46;;;;;;;6.10;1.40;;;;;;;1.33;100.00;100685.34;4982245;28;20101;-74
2022/01/08 04:14:14;;;;;;;13.15;1.50;;;;;;;0.94;100.00;100622.25;4981480;28;20034;-74
2022/01/08 04:16:43;;;;;;;5.82;1.20;;;;;;;0.58;100.00;100562.53;4964575;28;20030;-73
2022/01/08 04:19:09;;;;;;;8.77;1.52;;;;;;;1.29;100.00;100694.22;4963878;28;20121;-74
2022/01/08 04:24:04;;;;;;;6.32;1.50;;;;;;;1.38;100.00;100702.38;4983327;28;20143;-74
2022/01/08 04:26:30;;;;;;;9.70;1.50;;;;;;;1.37;100.00;100682.50;4968157;28;20043;-74
2022/01/08 04:28:55;;;;;;;6.15;1.33;;;;;;;1.01;100.00;100673.00;4965199;28;20046;-74
2022/01/08 04:31:22;;;;;;;13.30;1.60;;;;;;;1.23;100.00;100713.59;4981997;28;20041;-75
2022/01/08 04:33:48;;;;;;;7.93;1.60;;;;;;;1.33;100.00;100699.19;4963415;28;20129;-75
2022/01/08 04:36:14;;;;;;;7.90;1.20;;;;;;;1.38;100.00;100704.16;4980671;28;20031;-75
2022/01/08 04:38:41;;;;;;;7.80;1.30;;;;;;;1.29;100.00;100684.66;4964782;28;20030;-75
2022/01/08 04:41:06;;;;;;;11.70;1.83;;;;;;;1.27;100.00;100722.06;4952811;28;20038;-75
2022/01/08 04:43:33;;;;;;;10.10;1.77;;;;;;;0.63;100.00;100578.72;4984502;28;20507;-74
2022/01/08 04:45:59;;;;;;;8.63;1.50;;;;;;;1.06;100.00;100614.75;4980608;28;20022;-74
2022/01/08 04:48:25;;;;;;;7.35;1.60;;;;;;;0.84;100.00;100631.41;4962736;28;20023;-75
2022/01/08 04:50:50;;;;;;;5.22;1.45;;;;;;;1.37;100.00;100705.09;4962745;28;20023;-74
2022/01/08 04:53:17;;;;;;;8.10;1.48;;;;;;;1.34;100.00;100687.00;4979834;28;20105;-74
2022/01/08 04:55:42;;;;;;;9.80;1.58;;;;;;;0.15;100.00;100510.91;4946493;28;20073;-74
2022/01/08 04:58:17;;;;;;;7.68;1.58;;;;;;;0.94;100.00;100661.25;4947622;28;20035;-73
2022/01/08 05:00:43;;;;;;;9.77;1.45;;;;;;;1.10;100.00;100663.94;4947644;28;20105;-73
2022/01/08 05:03:09;;;;;;;11.90;1.77;;;;;;;1.30;100.00;100698.53;4931443;28;20062;-73
2022/01/08 05:05:35;;;;;;;8.65;1.48;;;;;;;1.06;100.00;100659.78;4963393;28;20026;-74
2022/01/08 05:08:00;;;;;;;8.02;1.70;;;;;;;1.23;100.00;100700.59;4947149;28;20026;-73
2022/01/08 05:10:26;;;;;;;12.05;1.60;;;;;;;0.37;100.00;100586.03;4946356;28;20109;-74
2022/01/08 05:12:52;;;;;;;8.43;1.50;;;;;;;0.19;100.00;100560.94;4961995;28;20045;-73
2022/01/08 05:15:18;;;;;;;12.40;1.90;;;;;;;0.58;100.00;100622.28;4962868;28;20498;-74
2022/01/08 05:17:46;;;;;;;8.15;1.30;;;;;;;1.15;100.00;100710.50;4963636;28;20031;-74
2022/01/08 05:20:13;;;;;;;6.90;1.60;;;;;;;0.65;100.00;100617.63;4950613;28;20113;-74
2022/01/08 05:22:52;;;;;;;10.02;1.90;;;;;;;1.13;100.00;100713.19;4966202;28;20038;-75
2022/01/08 05:25:20;;;;;;;9.50;1.50;;;;;;;1.15;100.00;100702.72;4964255;28;20556;-74
2022/01/08 05:27:47;;;;;;;6.68;2.08;;;;;;;0.68;100.00;100633.94;4963168;28;20038;-74
2022/01/08 05:30:17;;;;;;;9.68;1.63;;;;;;;1.11;100.00;100691.59;4946187;28;20034;-74
2022/01/08 05:32:48;;;;;;;12.98;2.50;;;;;;;1.23;100.00;100706.63;4963330;28;20038;-73
2022/01/08 05:35:15;;;;;;;8.43;2.00;;;;;;;0.94;100.00;100674.25;4962453;28;20458;-74
2022/01/08 05:37:41;;;;;;;9.43;1.63;;;;;;;0.79;100.00;100647.22;4964557;28;20027;-74
2022/01/08 05:40:20;;;;;;;9.23;1.55;;;;;;;0.41;100.00;100586.75;4966077;28;20022;-75
2022/01/08 05:42:49;;;;;;;7.30;1.73;;;;;;;1.28;100.00;100732.41;4968656;28;20032;-75
2022/01/08 05:45:17;;;;;;;10.60;1.95;;;;;;;1.23;100.00;100743.03;4966009;28;20046;-75
2022/01/08 05:47:47;;;;;;;10.75;1.90;;;;;;;0.42;100.00;100609.19;4968000;29;20024;-75
2022/01/08 05:50:15;;;;;;;9.55;1.90;;;;;;;0.77;100.00;100675.06;4973525;28;20062;-73
2022/01/08 05:52:42;;;;;;;6.65;1.50;;;;;;;0.86;100.00;100698.91;4989772;28;20121;-76
2022/01/08 05:55:09;;;;;;;8.20;1.60;;;;;;;1.06;100.00;100727.41;4969690;28;20023;-74
2022/01/08 05:57:37;;;;;;;10.88;2.13;;;;;;;0.89;100.00;100702.22;4982138;28;20045;-74
2022/01/08 06:00:13;;;;;;;11.95;2.13;;;;;;;1.03;100.00;100731.00;4968522;28;20023;-73
2022/01/08 06:02:39;;;;;;;9.75;2.35;;;;;;;0.92;100.00;100724.63;4971433;28;20065;-76
2022/01/08 06:05:07;;;;;;;13.50;2.03;;;;;;;0.86;100.00;100696.31;4988778;28;20042;-77
2022/01/08 06:07:36;;;;;;;9.77;1.80;;;;;;;-0.07;100.00;100531.88;4965220;28;20130;-78
2022/01/08 06:10:03;;;;;;;12.70;2.00;;;;;;;0.83;100.00;100679.13;4977446;28;20030;-74
2022/01/08 06:12:29;;;;;;;10.10;2.08;;;;;;;1.11;100.00;100716.78;4978144;28;20027;-74
2022/01/08 06:14:54;;;;;;;9.98;1.70;;;;;;;0.20;100.00;100598.97;4982149;28;20031;-74
2022/01/08 06:17:20;;;;;;;11.13;2.13;;;;;;;0.94;100.00;100689.84;4952570;28;20027;-74
2022/01/08 06:19:46;;;;;;;12.82;2.10;;;;;;;1.04;100.00;100721.44;4969077;28;20027;-75
2022/01/08 06:22:12;;;;;;;11.50;1.95;;;;;;;0.83;100.00;100663.53;5334811;23;20055;-81
2022/01/08 06:24:39;;;;;;;13.65;1.95;;;;;;;1.18;100.00;100726.81;4932353;29;20523;-80
2022/01/08 06:27:05;;;;;;;10.93;1.75;;;;;;;1.09;100.00;100683.06;4919643;29;20071;-79
2022/01/08 06:29:34;;;;;;;11.18;2.10;;;;;;;1.13;100.00;100696.72;4975113;23;20058;-79
2022/01/08 06:32:00;;;;;;;9.43;2.08;;;;;;;1.30;100.00;100709.75;4961381;28;20046;-80
2022/01/08 06:34:25;;;;;;;16.38;2.20;;;;;;;1.21;100.00;100687.63;4958913;28;20423;-79
2022/01/08 06:36:57;;;;;;;10.68;1.98;;;;;;;1.42;100.00;100705.69;4953422;23;20391;-79
2022/01/08 06:39:23;;;;;;;11.18;2.08;;;;;;;1.22;100.00;100678.91;4927148;29;20054;-77
2022/01/08 06:41:48;;;;;;;10.07;1.80;;;;;;;1.27;100.00;100696.88;4930055;29;20079;-79
2022/01/08 06:44:14;;;;;;;8.48;1.85;;;;;;;1.14;100.00;100672.44;4929331;29;20027;-79
2022/01/08 06:46:43;;;;;;;11.27;2.45;;;;;;;1.27;100.00;100691.69;4922105;29;20078;-79
2022/01/08 06:49:13;;;;;;;12.20;1.80;;;;;;;1.29;100.00;100699.41;4960494;28;20047;-79
2022/01/08 06:51:38;;;;;;;11.68;2.10;;;;;;;0.91;100.00;100656.19;4924444;29;20502;-79
2022/01/08 06:54:06;;;;;;;13.48;1.90;;;;;;;0.98;100.00;100649.78;4946828;29;20039;-78
2022/01/08 06:56:33;;;;;;;12.43;2.10;;;;;;;1.01;100.00;100644.41;4939298;29;20031;-78
2022/01/08 06:58:58;;;;;;;15.10;2.08;;;;;;;1.39;100.00;100691.09;4938545;29;20019;-77
2022/01/08 07:01:24;;;;;;;10.80;1.90;;;;;;;1.17;100.00;100656.66;4915960;29;20086;-77
2022/01/08 07:03:50;;;;;;;12.95;2.10;;;;;;;1.32;100.00;100681.03;4956381;29;20027;-78
2022/01/08 07:06:19;;;;;;;13.73;2.03;;;;;;;1.01;100.00;100653.97;4944954;29;20058;-83
2022/01/08 07:09:06;;;;;;;8.63;2.00;;;;;;;1.14;100.00;100670.66;4931137;29;20132;-83
2022/01/08 07:11:32;;;;;;;9.68;1.83;;;;;;;0.97;100.00;100629.03;4941781;29;20524;-79
2022/01/08 07:14:04;;;;;;;10.35;2.30;;;;;;;1.21;100.00;100661.63;4954665;29;20024;-79
2022/01/08 07:16:31;;;;;;;8.43;1.93;;;;;;;0.91;100.00;100648.41;4943348;29;20043;-79
2022/01/08 07:18:57;;;;;;;14.68;2.00;;;;;;;1.03;100.00;100639.16;4927975;29;20289;-79
2022/01/08 07:21:24;;;;;;;11.93;2.20;;;;;;;0.85;100.00;100601.91;4908037;29;20128;-80
2022/01/08 07:23:50;;;;;;;10.18;2.13;;;;;;;1.10;100.00;100652.69;4940758;29;20116;-76
2022/01/08 07:26:19;;;;;;;12.63;2.13;;;;;;;1.22;100.00;100689.31;4918990;29;20050;-79
2022/01/08 07:28:53;;;;;;;10.55;2.22;;;;;;;1.22;100.00;100685.88;4942886;29;20023;-77
2022/01/08 07:31:19;;;;;;;11.95;2.08;;;;;;;1.10;100.00;100684.72;4927859;29;20059;-79
2022/01/08 07:33:49;;;;;;;12.15;2.10;;;;;;;1.16;100.00;100696.56;4926362;23;20044;-78
2022/01/08 07:36:25;;;;;;;12.60;1.90;;;;;;;0.93;100.00;100627.50;4918444;29;20048;-77
2022/01/08 07:38:52;;;;;;;10.90;2.25;;;;;;;1.13;100.00;100679.38;4916654;29;20036;-77
2022/01/08 07:41:18;;;;;;;12.88;1.90;;;;;;;1.14;100.00;100659.44;4923711;29;20032;-78
2022/01/08 07:43:43;;;;;;;12.18;2.22;;;;;;;0.95;100.00;100649.91;4925991;29;20362;-78
2022/01/08 07:46:09;;;;;;;10.15;1.83;;;;;;;0.82;100.00;100661.84;4926073;29;20024;-78
2022/01/08 07:48:35;;;;;;;10.10;2.33;;;;;;;0.85;100.00;100642.66;4923075;29;20027;-78
2022/01/08 07:51:01;;;;;;;12.45;2.55;;;;;;;0.90;100.00;100649.31;4920818;29;20024;-76
2022/01/08 07:53:26;;;;;;;12.30;2.20;;;;;;;1.19;100.00;100666.06;4917546;29;20043;-79
2022/01/08 07:55:52;;;;;;;9.68;2.00;;;;;;;0.90;100.00;100635.47;4915827;29;20112;-78
2022/01/08 07:58:21;;;;;;;12.05;2.22;;;;;;;1.34;100.00;100658.41;4900051;29;20039;-77
2022/01/08 08:00:48;;;;;;;8.85;1.80;;;;;;;0.97;100.00;100627.28;4919699;29;20058;-77
2022/01/08 08:03:14;;;;;;;12.50;2.38;;;;;;;0.89;100.00;100650.22;4922339;29;20182;-77
2022/01/08 08:05:39;;;;;;;10.95;1.95;;;;;;;0.80;100.00;100611.69;4922051;29;20024;-77
2022/01/08 08:08:05;;;;;;;13.40;2.22;;;;;;;0.83;100.00;100604.56;4907328;29;20028;-77
2022/01/08 08:10:31;;;;;;;12.77;2.00;;;;;;;0.86;100.00;100603.56;4916280;29;20030;-77
2022/01/08 08:12:56;;;;;;;10.68;2.10;;;;;;;0.96;100.00;100628.22;4927354;29;20020;-77
2022/01/08 08:15:23;;;;;;;13.93;2.25;;;;;;;1.16;100.00;100619.41;4902984;29;20378;-77
2022/01/08 08:17:48;;;;;;;12.68;2.70;;;;;;;1.21;100.00;100647.78;4903352;29;20028;-78
2022/01/08 08:20:14;;;;;;;8.65;1.95;;;;;;;0.77;100.00;100610.09;4904284;29;20035;-77
2022/01/08 08:22:40;;;;;;;9.98;2.75;;;;;;;0.90;100.00;100597.31;4937136;29;20103;-79
2022/01/08 08:25:10;;;;;;;9.95;2.60;;;;;;;0.82;100.00;100584.69;4900667;29;20039;-79
2022/01/08 08:27:41;;;;;;;11.20;2.55;;;;;;;0.77;100.00;100598.81;4916135;29;20036;-78
2022/01/08 08:30:07;;;;;;;9.32;2.40;;;;;;;0.81;100.00;100589.97;4916624;29;20418;-78
2022/01/08 08:32:33;;;;;;;12.15;2.80;;;;;;;0.85;100.00;100609.69;4886825;29;20151;-77
2022/01/08 08:35:04;;;;;;;9.13;2.70;;;;;;;0.89;100.00;100613.84;4902855;29;20040;-78
2022/01/08 08:37:30;;;;;;;11.57;2.97;;;;;;;0.67;100.00;100587.22;4903597;29;20063;-77
2022/01/08 08:39:56;;;;;;;13.30;2.67;;;;;;;0.88;100.00;100603.50;4930998;29;20589;-75
2022/01/08 08:42:22;;;;;;;10.98;2.90;;;;;;;0.68;100.00;100552.50;4943214;29;20036;-80
2022/01/08 08:44:48;;;;;;;48.97;18.45;;;;;;;0.91;100.00;100604.22;4945655;29;20024;-80
2022/01/08 08:47:19;;;;;;;25.75;11.02;;;;;;;0.60;100.00;100525.16;4932205;29;20036;-80
2022/01/08 08:49:45;;;;;;;7.75;3.08;;;;;;;0.66;100.00;100569.94;4926948;29;20032;-77
2022/01/08 08:52:10;;;;;;;12.45;3.15;;;;;;;0.94;100.00;100591.03;4940018;29;20401;-78
2022/01/08 08:54:39;;;;;;;15.43;3.45;;;;;;;0.43;100.00;100537.28;4890828;29;20091;-78
2022/01/08 08:57:05;;;;;;;33.20;12.77;;;;;;;0.45;100.00;100525.91;4944084;29;20034;-81
2022/01/08 08:59:34;;;;;;;11.88;3.88;;;;;;;0.65;100.00;100535.31;4925968;29;20054;-78
2022/01/08 09:02:09;;;;;;;13.00;3.15;;;;;;;1.06;100.00;100607.78;4907119;29;20028;-83
2022/01/08 09:04:41;;;;;;;12.27;2.80;;;;;;;0.74;100.00;100567.81;4929437;29;20031;-80
2022/01/08 09:07:08;;;;;;;9.77;2.78;;;;;;;0.99;100.00;100594.25;4929215;29;20024;-79
2022/01/08 09:09:34;;;;;;;9.93;2.83;;;;;;;0.79;100.00;100579.63;4946607;29;20046;-77
2022/01/08 09:12:01;;;;;;;11.82;2.50;;;;;;;0.44;100.00;100518.19;4930856;29;20028;-78
2022/01/08 09:14:27;;;;;;;12.73;2.80;;;;;;;0.74;100.00;100550.44;4931378;29;20051;-78
2022/01/08 09:16:58;;;;;;;14.00;3.70;;;;;;;0.82;100.00;100555.28;4951835;29;20028;-79
2022/01/08 09:19:25;;;;;;;17.73;5.45;;;;;;;0.47;100.00;100494.66;4932133;29;20055;-81
2022/01/08 09:21:52;;;;;;;15.35;4.63;;;;;;;1.02;100.00;100525.63;4916298;29;20113;-80
2022/01/08 09:24:19;;;;;;;12.55;2.72;;;;;;;0.68;100.00;100510.94;4937213;29;20039;-76
2022/01/08 09:26:45;;;;;;;11.20;2.88;;;;;;;0.82;100.00;100535.31;4904106;29;20415;-76
2022/01/08 09:29:11;;;;;;;10.43;2.95;;;;;;;0.89;100.00;100503.81;4918150;29;20110;-78
2022/01/08 09:31:38;;;;;;;14.48;3.30;;;;;;;0.85;100.00;100515.28;4937844;29;20514;-77
2022/01/08 09:34:07;;;;;;;12.13;3.03;;;;;;;1.20;100.00;100537.72;4919817;29;20046;-78
2022/01/08 09:36:43;;;;;;;12.23;3.40;;;;;;;0.74;100.00;100534.00;4908705;29;20087;-82
2022/01/08 09:39:10;;;;;;;12.52;3.60;;;;;;;0.69;100.00;100482.28;4910088;29;20064;-82
2022/01/08 09:41:36;;;;;;;15.70;4.22;;;;;;;0.73;100.00;100503.75;4906419;29;20032;-80
2022/01/08 09:44:03;;;;;;;14.95;4.53;;;;;;;0.51;100.00;100520.41;4925974;29;20036;-76
2022/01/08 09:50:10;;;;;;;17.90;4.30;;;;;;;0.75;100.00;100507.97;4920786;29;20515;-74
2022/01/08 09:52:36;;;;;;;21.55;5.10;;;;;;;0.59;100.00;100481.03;4920041;29;20024;-78
2022/01/08 09:55:04;;;;;;;16.10;5.32;;;;;;;0.71;100.00;100457.03;4902911;29;20032;-74
2022/01/08 09:57:41;;;;;;;13.43;5.20;;;;;;;1.22;100.00;100472.59;4900403;29;20040;-80
2022/01/08 10:00:16;;;;;;;14.73;6.03;;;;;;;0.93;100.00;100466.31;4871566;29;20028;-82
2022/01/08 10:03:19;;;;;;;15.00;6.05;;;;;;;1.67;100.00;100465.81;4929069;24;20058;-79
2022/01/08 10:05:54;;;;;;;20.35;7.75;;;;;;;1.82;100.00;100472.78;4915214;29;20060;-78
2022/01/08 10:08:31;;;;;;;27.92;9.82;;;;;;;1.24;100.00;100424.75;4930218;29;20408;-80
2022/01/08 10:11:12;;;;;;;22.95;8.18;;;;;;;0.99;100.00;100390.59;4910296;29;20024;-81
2022/01/08 10:13:41;;;;;;;20.48;8.60;;;;;;;0.98;100.00;100384.56;4918778;29;20024;-79
2022/01/08 10:19:24;;;;;;;23.80;8.50;;;;;;;0.59;100.00;100375.38;4926356;29;20419;-78
2022/01/08 10:21:53;;;;;;;22.33;10.57;;;;;;;0.89;100.00;100372.06;4924318;29;20024;-82
2022/01/08 10:24:28;;;;;;;21.77;9.48;;;;;;;1.06;100.00;100441.34;4908131;29;20036;-79
2022/01/08 10:27:07;;;;;;;22.85;9.65;;;;;;;0.97;100.00;100429.66;4907415;29;20028;-80
2022/01/08 10:29:36;;;;;;;21.30;10.05;;;;;;;0.80;100.00;100391.59;4919872;29;20116;-80
2022/01/08 10:32:04;;;;;;;18.98;10.32;;;;;;;0.48;100.00;100367.28;4927832;29;20032;-76
2022/01/08 10:34:33;;;;;;;21.65;10.18;;;;;;;0.67;100.00;100393.16;4921355;29;20040;-78
2022/01/08 10:37:04;;;;;;;22.48;10.02;;;;;;;0.88;100.00;100411.97;4903496;29;20177;-79
2022/01/08 10:39:33;;;;;;;20.80;9.60;;;;;;;1.11;100.00;100409.91;4918284;29;20103;-77
2022/01/08 10:42:16;;;;;;;20.83;9.60;;;;;;;0.73;100.00;100348.66;4922797;29;20053;-82
2022/01/08 10:44:52;;;;;;;27.67;12.52;;;;;;;0.74;100.00;100328.69;4981466;23;20113;-80
2022/01/08 10:47:33;;;;;;;27.42;11.95;;;;;;;1.00;100.00;100380.13;4956555;28;20058;-86
2022/01/08 10:50:08;;;;;;;19.00;8.73;;;;;;;1.18;100.00;100370.50;4961066;28;20062;-80
2022/01/08 10:52:45;;;;;;;25.02;9.57;;;;;;;1.16;100.00;100361.94;4951390;28;20023;-82
2022/01/08 10:56:01;;;;;;;20.10;10.18;;;;;;;0.96;100.00;100355.22;4941624;29;20453;-79
2022/01/08 10:58:44;;;;;;;20.40;9.18;;;;;;;0.81;100.00;100335.25;4903865;29;20099;-78
2022/01/08 11:01:10;;;;;;;26.63;9.00;;;;;;;1.16;100.00;100363.66;4899035;29;20059;-79
2022/01/08 11:03:45;;;;;;;22.50;9.55;;;;;;;1.01;100.00;100310.75;4901548;29;20028;-79
2022/01/08 11:06:13;;;;;;;25.48;9.25;;;;;;;0.72;100.00;100269.00;4898110;29;20075;-80
2022/01/08 11:08:58;;;;;;;22.58;10.23;;;;;;;1.37;100.00;100294.03;4887310;29;20036;-82
2022/01/08 11:14:49;;;;;;;19.02;8.30;;;;;;;1.21;100.00;100253.28;4869212;29;20044;-83
2022/01/08 11:17:19;;;;;;;22.42;8.07;;;;;;;1.42;100.00;100305.84;4839680;29;20072;-77
2022/01/08 11:19:50;;;;;;;19.73;8.32;;;;;;;1.44;100.00;100275.38;4833208;29;20029;-81
2022/01/08 11:22:34;;;;;;;25.10;8.48;;;;;;;0.97;100.00;100260.69;4887200;29;20049;-84
2022/01/08 11:25:10;;;;;;;18.55;8.93;;;;;;;1.53;100.00;100255.78;4858460;29;20069;-77
2022/01/08 11:27:44;;;;;;;17.15;7.72;;;;;;;1.53;100.00;100265.38;4882477;29;20037;-78
2022/01/08 11:30:16;;;;;;;21.55;8.75;;;;;;;1.22;100.00;100248.91;4884265;29;20511;-77
2022/01/08 11:32:45;;;;;;;23.85;9.25;;;;;;;1.15;100.00;100211.19;4851936;29;20029;-77
2022/01/08 11:35:24;;;;;;;16.77;7.55;;;;;;;1.13;100.00;100229.47;4895067;29;20133;-78
2022/01/08 11:37:52;;;;;;;20.20;9.00;;;;;;;1.21;100.00;100195.22;4886894;29;20069;-77
2022/01/08 11:40:32;;;;;;;19.77;8.75;;;;;;;1.11;100.00;100191.47;4879835;29;20032;-77
2022/01/08 11:43:00;;;;;;;19.17;7.70;;;;;;;1.06;100.00;100162.28;4869155;29;20024;-76
2022/01/08 11:45:34;;;;;;;17.95;8.07;;;;;;;1.22;100.00;100179.50;4893051;29;20048;-76
2022/01/08 11:48:03;;;;;;;17.65;8.35;;;;;;;0.98;100.00;100142.78;4887490;29;20055;-77
2022/01/08 11:50:30;;;;;;;20.90;7.93;;;;;;;1.28;100.00;100188.75;4892289;28;20036;-76
2022/01/08 11:53:17;;;;;;;15.88;7.18;;;;;;;1.69;100.00;100176.81;4978616;28;20046;-78
2022/01/08 11:55:46;;;;;;;17.33;7.75;;;;;;;1.38;100.00;100148.22;4983767;28;20022;-78
2022/01/08 11:58:27;;;;;;;17.13;6.80;;;;;;;1.39;100.00;100157.72;4964235;28;20106;-79
2022/01/08 12:00:59;;;;;;;20.90;8.35;;;;;;;1.14;100.00;100110.69;4978277;28;20030;-75